createdAt,value
2023-05-23T00:06:55.310Z,9.20
2023-05-23T00:09:23.269Z,8.77
2023-05-23T00:11:53.444Z,8.35
2023-05-23T00:14:22.057Z,9.43
2023-05-23T00:16:52.734Z,8.57
2023-05-23T00:19:21.616Z,8.10
2023-05-23T00:21:51.160Z,8.52
2023-05-23T00:24:24.926Z,8.68
2023-05-23T00:26:53.274Z,8.57
2023-05-23T00:29:21.843Z,8.48
2023-05-23T00:31:55.944Z,8.18
2023-05-23T00:34:23.763Z,8.43
2023-05-23T00:36:55.204Z,7.95
2023-05-23T00:39:23.447Z,8.52
2023-05-23T00:41:53.321Z,8.13
2023-05-23T00:44:22.734Z,9.57
2023-05-23T00:46:56.212Z,9.38
2023-05-23T00:49:24.506Z,7.80
2023-05-23T00:51:55.744Z,9.15
2023-05-23T00:54:28.639Z,9.23
2023-05-23T00:56:57.014Z,8.75
2023-05-23T00:59:26.887Z,9.18
2023-05-23T01:01:57.622Z,9.80
2023-05-23T01:04:28.622Z,9.75
2023-05-23T01:06:59.143Z,10.40
2023-05-23T01:11:54.881Z,9.70
2023-05-23T01:14:30.776Z,10.13
2023-05-23T01:17:01.710Z,9.68
2023-05-23T01:19:35.785Z,10.52
2023-05-23T01:22:07.355Z,9.32
2023-05-23T01:24:36.852Z,9.38
2023-05-23T01:27:16.803Z,9.95
2023-05-23T01:29:48.581Z,10.18
2023-05-23T01:32:17.589Z,10.45
2023-05-23T01:34:46.509Z,9.55
2023-05-23T01:37:20.483Z,9.52
2023-05-23T01:39:50.816Z,8.90
2023-05-23T01:42:18.872Z,9.68
2023-05-23T01:44:51.461Z,8.73
2023-05-23T01:47:19.842Z,8.30
2023-05-23T01:49:48.877Z,7.18
2023-05-23T01:52:18.025Z,7.53
2023-05-23T01:54:45.999Z,7.80
2023-05-23T01:57:15.409Z,6.95
2023-05-23T01:59:45.375Z,8.23
2023-05-23T02:02:13.107Z,7.93
2023-05-23T02:04:41.770Z,7.55
2023-05-23T02:07:09.406Z,7.38
2023-05-23T02:09:37.281Z,7.40
2023-05-23T02:12:04.901Z,8.13
2023-05-23T02:14:32.810Z,7.72
2023-05-23T02:19:02.634Z,7.78
2023-05-23T02:21:31.539Z,8.80
2023-05-23T02:24:00.639Z,8.60
2023-05-23T02:26:28.788Z,9.00
2023-05-23T02:28:56.400Z,9.20
2023-05-23T02:31:26.140Z,9.25
2023-05-23T02:33:54.011Z,9.35
2023-05-23T02:36:22.914Z,8.40
2023-05-23T02:38:53.292Z,8.82
2023-05-23T02:41:23.619Z,8.65
2023-05-23T02:43:52.895Z,9.13
2023-05-23T02:46:21.715Z,8.52
2023-05-23T02:48:51.003Z,8.30
2023-05-23T02:51:18.852Z,8.57
2023-05-23T02:53:46.398Z,8.35
2023-05-23T02:56:14.165Z,8.48
2023-05-23T02:58:41.820Z,9.40
2023-05-23T03:01:09.780Z,9.93
2023-05-23T03:03:38.237Z,9.10
2023-05-23T03:06:06.439Z,8.98
2023-05-23T03:08:34.191Z,9.13
2023-05-23T03:11:01.906Z,9.65
2023-05-23T03:13:30.021Z,9.57
2023-05-23T03:15:57.622Z,9.65
2023-05-23T03:18:25.228Z,10.85
2023-05-23T03:20:53.847Z,9.75
2023-05-23T03:23:23.688Z,9.77
2023-05-23T03:25:53.639Z,9.50
2023-05-23T03:30:50.789Z,9.07
2023-05-23T03:33:23.455Z,8.70
2023-05-23T03:35:53.152Z,8.80
2023-05-23T03:38:22.459Z,8.48
2023-05-23T03:40:52.254Z,8.55
2023-05-23T03:43:22.416Z,8.50
2023-05-23T03:45:53.279Z,8.43
2023-05-23T03:48:21.827Z,8.82
2023-05-23T03:50:51.975Z,8.70
2023-05-23T03:53:20.527Z,7.88
2023-05-23T03:55:48.052Z,7.43
2023-05-23T03:58:15.747Z,8.13
2023-05-23T04:00:46.672Z,7.75
2023-05-23T04:03:17.653Z,7.60
2023-05-23T04:05:45.902Z,8.10
2023-05-23T04:08:13.933Z,8.05
2023-05-23T04:10:41.547Z,8.02
2023-05-23T04:13:09.721Z,7.70
2023-05-23T04:15:40.266Z,7.78
2023-05-23T04:18:11.158Z,7.88
2023-05-23T04:20:39.068Z,7.85
2023-05-23T04:23:06.808Z,7.63
2023-05-23T04:25:37.775Z,8.23
2023-05-23T04:28:21.357Z,7.75
2023-05-23T04:30:50.602Z,7.88
2023-05-23T04:33:22.418Z,7.90
2023-05-23T04:35:51.123Z,7.70
2023-05-23T04:38:20.522Z,8.20
2023-05-23T04:40:51.538Z,8.10
2023-05-23T04:46:32.998Z,9.35
2023-05-23T04:49:22.996Z,10.60
2023-05-23T04:51:54.495Z,10.70
2023-05-23T04:54:29.810Z,11.82
2023-05-23T04:57:00.465Z,11.20
2023-05-23T04:59:30.653Z,10.70
2023-05-23T05:01:58.649Z,11.15
2023-05-23T05:04:26.474Z,12.85
2023-05-23T05:06:54.482Z,12.60
2023-05-23T05:09:23.322Z,12.48
2023-05-23T05:11:55.830Z,12.90
2023-05-23T05:14:24.033Z,12.82
2023-05-23T05:16:55.020Z,13.25
2023-05-23T05:19:35.408Z,11.48
2023-05-23T05:22:03.735Z,11.73
2023-05-23T05:24:33.060Z,11.20
2023-05-23T05:27:01.015Z,11.23
2023-05-23T05:29:29.960Z,9.77
2023-05-23T05:31:59.446Z,9.05
2023-05-23T05:34:28.296Z,8.87
2023-05-23T05:36:57.116Z,8.87
2023-05-23T05:39:26.708Z,9.85
2023-05-23T05:41:56.518Z,9.07
2023-05-23T05:44:24.938Z,8.18
2023-05-23T05:46:53.335Z,8.18
2023-05-23T05:49:22.589Z,7.28
2023-05-23T05:51:53.989Z,7.53
2023-05-23T05:54:23.295Z,7.07
2023-05-23T05:56:52.482Z,6.45
2023-05-23T05:59:23.124Z,6.43
2023-05-23T06:01:53.787Z,6.95
2023-05-23T06:04:23.937Z,6.40
2023-05-23T06:06:53.482Z,6.28
2023-05-23T06:09:25.103Z,6.55
2023-05-23T06:11:53.337Z,6.05
2023-05-23T06:14:26.846Z,6.32
2023-05-23T06:16:55.320Z,6.35
2023-05-23T06:19:23.585Z,6.90
2023-05-23T06:21:52.080Z,5.50
2023-05-23T06:24:22.944Z,5.70
2023-05-23T06:26:51.639Z,6.20
2023-05-23T06:29:20.240Z,6.28
2023-05-23T06:31:48.102Z,6.63
2023-05-23T06:34:15.749Z,6.32
2023-05-23T06:36:43.549Z,6.45
2023-05-23T06:39:11.415Z,6.18
2023-05-23T06:41:40.653Z,6.70
2023-05-23T06:44:10.534Z,6.80
2023-05-23T06:46:46.706Z,5.95
2023-05-23T06:49:15.547Z,5.60
2023-05-23T06:51:46.254Z,5.47
2023-05-23T06:54:14.609Z,5.75
2023-05-23T06:56:42.677Z,4.60
2023-05-23T06:59:10.497Z,5.28
2023-05-23T07:01:38.742Z,5.85
2023-05-23T07:04:07.148Z,5.90
2023-05-23T07:06:36.751Z,5.65
2023-05-23T07:09:06.087Z,4.97
2023-05-23T07:11:34.052Z,5.55
2023-05-23T07:14:03.023Z,5.65
2023-05-23T07:16:37.696Z,5.53
2023-05-23T07:19:08.005Z,5.45
2023-05-23T07:21:42.963Z,5.50
2023-05-23T07:24:12.046Z,6.30
2023-05-23T07:26:41.072Z,6.45
2023-05-23T07:29:08.889Z,7.07
2023-05-23T07:31:38.997Z,6.78
2023-05-23T07:36:53.987Z,6.60
2023-05-23T07:39:24.619Z,5.35
2023-05-23T07:41:55.534Z,5.25
2023-05-23T07:44:25.211Z,5.18
2023-05-23T07:46:54.690Z,5.10
2023-05-23T07:49:23.892Z,4.60
2023-05-23T07:51:53.144Z,4.70
2023-05-23T07:54:23.890Z,5.10
2023-05-23T07:56:56.801Z,4.88
2023-05-23T07:59:25.506Z,4.82
2023-05-23T08:01:53.737Z,3.67
2023-05-23T08:07:04.922Z,3.42
2023-05-23T08:09:47.831Z,4.80
2023-05-23T08:12:20.438Z,4.20
2023-05-23T08:14:54.578Z,4.47
2023-05-23T08:17:30.160Z,4.30
2023-05-23T08:20:00.798Z,4.22
2023-05-23T08:22:29.075Z,4.28
2023-05-23T08:24:56.890Z,3.80
2023-05-23T08:27:25.626Z,4.15
2023-05-23T08:30:00.018Z,3.33
2023-05-23T08:32:28.083Z,3.03
2023-05-23T08:34:56.068Z,3.45
2023-05-23T08:37:23.718Z,3.22
2023-05-23T08:39:53.015Z,2.50
2023-05-23T08:42:36.227Z,3.33
2023-05-23T08:45:06.812Z,2.70
2023-05-23T08:47:35.936Z,3.17
2023-05-23T08:50:07.838Z,2.72
2023-05-23T08:52:36.868Z,3.28
2023-05-23T08:55:06.479Z,2.97
2023-05-23T08:57:37.189Z,2.70
2023-05-23T09:00:22.764Z,3.00
2023-05-23T09:02:51.989Z,3.85
2023-05-23T09:05:38.666Z,2.88
2023-05-23T09:08:11.386Z,3.17
2023-05-23T09:10:40.884Z,2.53
2023-05-23T09:13:10.150Z,2.65
2023-05-23T09:15:39.604Z,2.60
2023-05-23T09:18:11.517Z,2.60
2023-05-23T09:20:41.535Z,2.38
2023-05-23T09:23:14.055Z,2.70
2023-05-23T09:25:49.356Z,3.47
2023-05-23T09:28:18.369Z,3.00
2023-05-23T09:30:48.361Z,2.95
2023-05-23T09:33:17.339Z,3.70
2023-05-23T09:35:46.486Z,3.10
2023-05-23T09:38:14.299Z,2.85
2023-05-23T09:40:45.796Z,3.03
2023-05-23T09:43:13.409Z,3.50
2023-05-23T09:45:41.339Z,4.63
2023-05-23T09:48:15.865Z,3.17
2023-05-23T09:50:58.737Z,3.03
2023-05-23T09:53:28.147Z,3.45
2023-05-23T09:55:59.690Z,2.88
2023-05-23T09:58:30.425Z,3.03
2023-05-23T10:01:00.900Z,3.13
2023-05-23T10:03:35.159Z,3.65
2023-05-23T10:06:22.791Z,3.95
2023-05-23T10:09:12.104Z,4.03
2023-05-23T10:12:00.918Z,2.90
2023-05-23T10:14:31.703Z,2.75
2023-05-23T10:17:11.655Z,3.13
2023-05-23T10:19:55.681Z,3.00
2023-05-23T10:22:25.236Z,3.22
2023-05-23T10:24:53.871Z,3.40
2023-05-23T10:27:23.786Z,3.30
2023-05-23T10:29:53.297Z,3.38
2023-05-23T10:32:25.266Z,3.40
2023-05-23T10:34:52.987Z,3.30
2023-05-23T10:37:39.295Z,3.45
2023-05-23T10:40:10.101Z,3.28
2023-05-23T10:42:37.580Z,3.08
2023-05-23T10:45:22.577Z,2.95
2023-05-23T10:47:53.267Z,3.30
2023-05-23T10:50:37.642Z,2.95
2023-05-23T10:53:06.566Z,3.42
2023-05-23T10:55:35.383Z,4.15
2023-05-23T10:58:21.783Z,3.42
2023-05-23T11:01:08.967Z,3.67
2023-05-23T11:03:51.912Z,3.05
2023-05-23T11:06:44.763Z,3.20
2023-05-23T11:09:14.164Z,3.05
2023-05-23T11:11:55.545Z,2.90
2023-05-23T11:14:34.669Z,3.25
2023-05-23T11:17:03.096Z,3.03
2023-05-23T11:19:31.967Z,3.30
2023-05-23T11:22:01.377Z,3.50
2023-05-23T11:24:48.528Z,3.05
2023-05-23T11:27:16.690Z,3.10
2023-05-23T11:29:47.339Z,3.15
2023-05-23T11:32:17.683Z,3.50
2023-05-23T11:34:45.830Z,3.20
2023-05-23T11:37:14.396Z,2.63
2023-05-23T11:39:42.168Z,2.22
2023-05-23T11:42:09.873Z,3.47
2023-05-23T11:44:37.504Z,3.08
2023-05-23T11:47:06.934Z,3.05
2023-05-23T11:49:38.294Z,2.55
2023-05-23T11:52:09.624Z,3.35
2023-05-23T11:54:38.527Z,2.90
2023-05-23T11:57:06.665Z,3.10
2023-05-23T11:59:35.257Z,3.03
2023-05-23T12:02:03.850Z,3.88
2023-05-23T12:04:31.795Z,3.17
2023-05-23T12:06:59.582Z,4.25
2023-05-23T12:09:27.228Z,3.15
2023-05-23T12:11:55.336Z,3.38
2023-05-23T12:14:23.702Z,3.13
2023-05-23T12:16:53.806Z,2.92
2023-05-23T12:19:23.112Z,3.40
2023-05-23T12:21:52.080Z,3.00
2023-05-23T12:24:25.567Z,2.78
2023-05-23T12:26:55.471Z,2.92
2023-05-23T12:29:30.096Z,3.20
2023-05-23T12:31:59.509Z,3.40
2023-05-23T12:34:27.508Z,2.95
2023-05-23T12:37:14.750Z,3.08
2023-05-23T12:39:47.846Z,3.00
2023-05-23T12:42:15.864Z,3.17
2023-05-23T12:44:43.926Z,2.80
2023-05-23T12:47:11.920Z,3.03
2023-05-23T12:49:39.908Z,2.72
2023-05-23T12:52:08.255Z,3.80
2023-05-23T12:54:36.653Z,3.08
2023-05-23T12:57:04.964Z,3.33
2023-05-23T12:59:32.990Z,2.72
2023-05-23T13:02:02.660Z,2.80
2023-05-23T13:04:32.453Z,3.00
2023-05-23T13:07:03.508Z,3.10
2023-05-23T13:09:32.160Z,2.47
2023-05-23T13:12:01.123Z,2.50
2023-05-23T13:14:28.883Z,2.75
2023-05-23T13:16:57.297Z,3.42
2023-05-23T13:19:25.019Z,3.22
2023-05-23T13:21:52.982Z,2.83
2023-05-23T13:24:23.684Z,3.13
2023-05-23T13:29:20.804Z,3.17
2023-05-23T13:31:48.963Z,2.70
2023-05-23T13:34:20.074Z,2.60
2023-05-23T13:36:50.877Z,2.40
2023-05-23T13:39:21.325Z,3.15
2023-05-23T13:41:50.909Z,2.10
2023-05-23T13:44:27.978Z,2.45
2023-05-23T13:46:59.625Z,2.50
2023-05-23T13:49:27.542Z,2.88
2023-05-23T13:51:55.833Z,2.70
2023-05-23T13:54:23.899Z,3.47
2023-05-23T13:56:53.059Z,3.20
2023-05-23T13:59:22.575Z,2.58
2023-05-23T14:01:51.736Z,2.53
2023-05-23T14:04:20.178Z,3.30
2023-05-23T14:06:48.524Z,3.17
2023-05-23T14:09:20.233Z,3.05
2023-05-23T14:11:58.807Z,2.90
2023-05-23T14:14:27.662Z,2.50
2023-05-23T14:16:55.735Z,2.55
2023-05-23T14:19:24.158Z,2.80
2023-05-23T14:21:53.721Z,2.45
2023-05-23T14:24:25.158Z,2.63
2023-05-23T14:26:52.818Z,2.75
2023-05-23T14:29:21.700Z,2.65
2023-05-23T14:31:50.342Z,2.40
2023-05-23T14:34:18.475Z,2.50
2023-05-23T14:36:46.321Z,2.88
2023-05-23T14:39:14.637Z,2.40
2023-05-23T14:41:43.182Z,2.83
2023-05-23T14:44:11.220Z,3.10
2023-05-23T14:46:39.248Z,2.80
2023-05-23T14:49:07.584Z,2.67
2023-05-23T14:51:47.498Z,2.30
2023-05-23T14:54:18.705Z,2.67
2023-05-23T14:56:49.428Z,2.80
2023-05-23T14:59:20.417Z,3.05
2023-05-23T15:01:48.759Z,2.70
2023-05-23T15:04:18.456Z,2.85
2023-05-23T15:06:47.890Z,3.42
2023-05-23T15:09:16.097Z,2.65
2023-05-23T15:11:45.613Z,3.38
2023-05-23T15:14:14.302Z,2.53
2023-05-23T15:16:44.705Z,3.50
2023-05-23T15:19:13.446Z,3.00
2023-05-23T15:21:49.633Z,2.90
2023-05-23T15:24:18.955Z,3.25
2023-05-23T15:26:50.495Z,2.95
2023-05-23T15:29:21.830Z,2.50
2023-05-23T15:31:54.138Z,3.40
2023-05-23T15:34:24.124Z,3.15
2023-05-23T15:36:58.015Z,2.72
2023-05-23T15:39:29.931Z,3.03
2023-05-23T15:41:59.409Z,3.10
2023-05-23T15:44:27.934Z,3.40
2023-05-23T15:46:56.227Z,2.80
2023-05-23T15:49:26.983Z,2.78
2023-05-23T15:51:55.759Z,3.03
2023-05-23T15:54:24.126Z,2.78
2023-05-23T15:56:52.797Z,2.90
2023-05-23T15:59:21.635Z,2.60
2023-05-23T16:01:50.779Z,3.47
2023-05-23T16:04:18.626Z,2.97
2023-05-23T16:06:46.536Z,2.67
2023-05-23T16:09:14.960Z,2.40
2023-05-23T16:11:43.813Z,2.40
2023-05-23T16:14:13.229Z,2.95
2023-05-23T16:16:41.428Z,3.33
2023-05-23T16:19:12.258Z,3.25
2023-05-23T16:21:40.249Z,2.78
2023-05-23T16:24:08.091Z,2.30
2023-05-23T16:26:36.186Z,2.85
2023-05-23T16:29:04.524Z,2.60
2023-05-23T16:31:32.700Z,2.45
2023-05-23T16:34:01.042Z,2.20
2023-05-23T16:36:29.105Z,2.75
2023-05-23T16:38:58.571Z,2.40
2023-05-23T16:41:29.741Z,2.78
2023-05-23T16:43:58.026Z,2.42
2023-05-23T16:46:26.530Z,2.53
2023-05-23T16:48:56.054Z,3.20
2023-05-23T16:51:23.873Z,2.83
2023-05-23T16:53:53.429Z,2.92
2023-05-23T16:56:23.640Z,2.67
2023-05-23T16:58:53.552Z,2.45
2023-05-23T17:01:22.333Z,2.65
2023-05-23T17:03:53.958Z,3.15
2023-05-23T17:06:22.599Z,2.13
2023-05-23T17:08:51.338Z,3.20
2023-05-23T17:11:20.618Z,2.30
2023-05-23T17:13:48.575Z,2.70
2023-05-23T17:16:20.425Z,2.53
2023-05-23T17:18:50.524Z,2.53
2023-05-23T17:21:18.875Z,2.50
2023-05-23T17:23:52.905Z,2.42
2023-05-23T17:26:21.700Z,2.28
2023-05-23T17:28:50.226Z,2.08
2023-05-23T17:31:18.540Z,2.20
2023-05-23T17:33:50.577Z,2.28
2023-05-23T17:36:18.178Z,2.67
2023-05-23T17:38:47.775Z,2.83
2023-05-23T17:41:16.821Z,2.67
2023-05-23T17:43:45.128Z,2.38
2023-05-23T17:46:15.034Z,3.00
2023-05-23T17:48:47.724Z,2.70
2023-05-23T17:51:21.151Z,3.03
2023-05-23T17:53:53.890Z,2.67
2023-05-23T17:56:25.483Z,3.00
2023-05-23T17:58:55.917Z,2.45
2023-05-23T18:01:32.849Z,2.85
2023-05-23T18:04:01.673Z,2.50
2023-05-23T18:06:31.952Z,2.40
2023-05-23T18:09:00.188Z,2.33
2023-05-23T18:11:29.424Z,1.95
2023-05-23T18:13:57.414Z,2.40
2023-05-23T18:16:28.900Z,2.30
2023-05-23T18:18:59.218Z,3.35
2023-05-23T18:21:29.110Z,3.05
2023-05-23T18:23:59.150Z,2.40
2023-05-23T18:26:27.749Z,2.60
2023-05-23T18:28:55.802Z,2.58
2023-05-23T18:31:25.289Z,2.30
2023-05-23T18:33:54.725Z,2.73
2023-05-23T18:36:22.801Z,2.63
2023-05-23T18:38:52.246Z,2.50
2023-05-23T18:41:20.471Z,2.33
2023-05-23T18:43:48.376Z,2.47
2023-05-23T18:46:18.526Z,2.60
2023-05-23T18:48:47.923Z,2.80
2023-05-23T18:51:15.926Z,2.57
2023-05-23T18:53:44.381Z,2.40
2023-05-23T18:56:13.193Z,2.40
2023-05-23T18:58:42.100Z,3.43
2023-05-23T19:01:09.731Z,3.28
2023-05-23T19:03:38.015Z,2.45
2023-05-23T19:06:06.192Z,3.03
2023-05-23T19:08:34.587Z,3.83
2023-05-23T19:11:02.480Z,2.88
2023-05-23T19:13:31.719Z,2.88
2023-05-23T19:16:02.955Z,3.00
2023-05-23T19:18:31.173Z,2.40
2023-05-23T19:21:00.433Z,2.38
2023-05-23T19:23:28.223Z,2.92
2023-05-23T19:25:57.738Z,2.75
2023-05-23T19:28:26.498Z,2.10
2023-05-23T19:30:57.656Z,2.72
2023-05-23T19:33:25.672Z,2.45
2023-05-23T19:35:53.748Z,2.20
2023-05-23T19:38:25.480Z,2.53
2023-05-23T19:40:53.560Z,2.63
2023-05-23T19:43:23.255Z,2.60
2023-05-23T19:45:51.414Z,2.47
2023-05-23T19:48:22.249Z,2.50
2023-05-23T19:50:51.730Z,2.75
2023-05-23T19:53:20.496Z,2.83
2023-05-23T19:55:48.402Z,2.58
2023-05-23T19:58:17.630Z,2.20
2023-05-23T20:00:45.543Z,2.65
2023-05-23T20:03:13.609Z,2.92
2023-05-23T20:05:43.886Z,2.92
2023-05-23T20:08:12.221Z,2.65
2023-05-23T20:10:41.177Z,2.15
2023-05-23T20:13:09.208Z,2.30
2023-05-23T20:15:40.031Z,2.30
2023-05-23T20:20:37.792Z,2.00
2023-05-23T20:23:06.788Z,2.33
2023-05-23T20:25:34.427Z,3.17
2023-05-23T20:28:04.031Z,2.25
2023-05-23T20:30:34.949Z,2.47
2023-05-23T20:33:04.530Z,2.60
2023-05-23T20:35:36.408Z,2.33
2023-05-23T20:38:04.535Z,2.30
2023-05-23T20:40:35.979Z,2.30
2023-05-23T20:43:05.249Z,2.20
2023-05-23T20:45:37.296Z,1.98
2023-05-23T20:48:07.319Z,2.90
2023-05-23T20:50:36.921Z,2.95
2023-05-23T20:53:06.419Z,2.80
2023-05-23T20:55:38.353Z,2.53
2023-05-23T20:58:11.339Z,2.30
2023-05-23T21:00:39.570Z,3.17
2023-05-23T21:03:08.727Z,2.83
2023-05-23T21:05:36.710Z,2.35
2023-05-23T21:08:04.517Z,2.90
2023-05-23T21:10:32.283Z,1.98
2023-05-23T21:13:00.360Z,2.20
2023-05-23T21:15:28.325Z,2.78
2023-05-23T21:17:56.190Z,2.33
2023-05-23T21:20:24.005Z,2.72
2023-05-23T21:22:53.393Z,2.22
2023-05-23T21:25:21.552Z,2.15
2023-05-23T21:27:50.385Z,2.55
2023-05-23T21:30:21.112Z,2.03
2023-05-23T21:32:50.117Z,2.28
2023-05-23T21:35:18.267Z,2.55
2023-05-23T21:37:46.251Z,2.33
2023-05-23T21:40:14.411Z,2.50
2023-05-23T21:42:42.157Z,2.33
2023-05-23T21:45:11.450Z,2.97
2023-05-23T21:47:39.926Z,2.25
2023-05-23T21:50:08.639Z,2.30
2023-05-23T21:52:36.399Z,3.42
2023-05-23T21:55:04.274Z,1.92
2023-05-23T21:57:33.486Z,1.95
2023-05-23T22:00:02.083Z,2.33
2023-05-23T22:02:30.059Z,2.30
2023-05-23T22:04:57.969Z,1.90
2023-05-23T22:07:26.287Z,2.42
2023-05-23T22:09:54.884Z,2.45
2023-05-23T22:12:23.414Z,3.08
2023-05-23T22:14:52.143Z,2.33
2023-05-23T22:17:22.941Z,2.58
2023-05-23T22:19:52.156Z,2.25
2023-05-23T22:22:24.081Z,2.28
2023-05-23T22:24:52.980Z,2.67
2023-05-23T22:27:22.891Z,3.00
2023-05-23T22:29:53.545Z,2.80
2023-05-23T22:32:22.059Z,2.63
2023-05-23T22:34:50.281Z,2.47
2023-05-23T22:37:17.956Z,3.58
2023-05-23T22:39:45.694Z,2.65
2023-05-23T22:42:13.337Z,2.90
2023-05-23T22:44:40.907Z,3.72
2023-05-23T22:47:10.907Z,2.00
2023-05-23T22:49:39.322Z,2.45
2023-05-23T22:52:08.536Z,2.72
2023-05-23T22:54:36.447Z,3.00
2023-05-23T22:57:04.118Z,2.55
2023-05-23T22:59:33.187Z,2.67
2023-05-23T23:02:00.964Z,2.80
2023-05-23T23:04:32.176Z,2.60
2023-05-23T23:07:01.745Z,2.25
2023-05-23T23:09:29.768Z,2.47
2023-05-23T23:11:57.523Z,2.17
2023-05-23T23:14:25.791Z,2.60
2023-05-23T23:16:53.684Z,3.20
2023-05-23T23:19:22.898Z,2.35
2023-05-23T23:21:52.089Z,2.70
2023-05-23T23:24:21.927Z,2.80
2023-05-23T23:26:50.804Z,2.70
2023-05-23T23:29:18.797Z,2.83
2023-05-23T23:31:46.858Z,2.72
2023-05-23T23:34:14.611Z,2.90
2023-05-23T23:36:42.231Z,2.40
2023-05-23T23:39:15.464Z,2.80
2023-05-23T23:41:43.290Z,2.95
2023-05-23T23:44:11.715Z,3.15
2023-05-23T23:46:39.944Z,2.25
2023-05-23T23:49:07.831Z,2.40
2023-05-23T23:51:36.861Z,2.42
2023-05-23T23:54:05.773Z,3.85
2023-05-23T23:56:33.322Z,2.50
2023-05-23T23:59:01.449Z,2.60
